Time;durP1;ratioP1;P1;durP2;ratioP2;P2;SDS_P1;SDS_P2;PMS_P1;PMS_P2;Temp;Humidity;BMP_temperature;BMP_pressure;BME280_temperature;BME280_humidity;BME280_pressure;Samples;Min_cycle;Max_cycle;Signal;HPM_P1;HPM_P2
2024/04/08 00:00:52;;;;;;;;;;;;;;;;;;5004370;28;5045;-56
2024/04/08 00:03:17;;;;;;;;;;;;;;;;;;5007158;28;3605;-57
2024/04/08 00:05:43;;;;;;;;;;;;;;;;;;5003561;28;5133;-56
2024/04/08 00:08:08;;;;;;;;;;;;;;;;;;5005449;28;5140;-56
2024/04/08 00:10:37;;;;;;;;;;;;;;;;;;4991457;28;5419;-56
2024/04/08 00:13:02;;;;;;;;;;;;;;;;;;5008380;28;5172;-56
2024/04/08 00:15:27;;;;;;;;;;;;;;;;;;5008030;28;3707;-56
2024/04/08 00:17:53;;;;;;;;;;;;;;;;;;5002206;28;4987;-57
2024/04/08 00:20:21;;;;;;;;;;;;;;;;;;5008196;28;4727;-56
2024/04/08 00:22:50;;;;;;;;;;;;;;;;;;5008196;28;5082;-56
2024/04/08 00:25:16;;;;;;;;;;;;;;;;;;5007189;28;4721;-56
2024/04/08 00:27:41;;;;;;;;;;;;;;;;;;5005808;28;3590;-56
2024/04/08 00:30:07;;;;;;;;;;;;;;;;;;5007758;28;4862;-56
2024/04/08 00:32:32;;;;;;;;;;;;;;;;;;5008628;28;5019;-56
2024/04/08 00:34:57;;;;;;;;;;;;;;;;;;5006839;28;4911;-56
2024/04/08 00:37:23;;;;;;;;;;;;;;;;;;5007960;28;5090;-56
2024/04/08 00:39:48;;;;;;;;;;;;;;;;;;5009806;28;3467;-56
2024/04/08 00:42:13;;;;;;;;;;;;;;;;;;5007024;28;4471;-56
2024/04/08 00:44:39;;;;;;;;;;;;;;;;;;5006068;28;5075;-56
2024/04/08 00:47:04;;;;;;;;;;;;;;;;;;5003059;28;5130;-56
2024/04/08 00:49:29;;;;;;;;;;;;;;;;;;5007240;28;4498;-56
2024/04/08 00:51:56;;;;;;;;;;;;;;;;;;5006086;28;4778;-56
2024/04/08 00:54:21;;;;;;;;;;;;;;;;;;5008635;28;3444;-56
2024/04/08 00:56:47;;;;;;;;;;;;;;;;;;4990435;28;4684;-54
2024/04/08 00:59:15;;;;;;;;;;;;;;;;;;5006575;28;5025;-54
2024/04/08 01:01:41;;;;;;;;;;;;;;;;;;5006129;28;4527;-56
2024/04/08 01:04:06;;;;;;;;;;;;;;;;;;5004458;28;4584;-56
2024/04/08 01:06:31;;;;;;;;;;;;;;;;;;4987645;28;3750;-56
2024/04/08 01:08:57;;;;;;;;;;;;;;;;;;5006350;28;5200;-56
2024/04/08 01:11:23;;;;;;;;;;;;;;;;;;5004305;28;4862;-56
2024/04/08 01:13:48;;;;;;;;;;;;;;;;;;5005048;28;5111;-56
2024/04/08 01:16:13;;;;;;;;;;;;;;;;;;5007190;28;4664;-56
2024/04/08 01:18:39;;;;;;;;;;;;;;;;;;5015565;28;1179;-56
2024/04/08 01:21:04;;;;;;;;;;;;;;;;;;5005067;28;4511;-56
2024/04/08 01:23:35;;;;;;;;;;;;;;;;;;5005207;28;5041;-56
2024/04/08 01:26:00;;;;;;;;;;;;;;;;;;4990976;28;4626;-56
2024/04/08 01:28:25;;;;;;;;;;;;;;;;;;5003669;28;5040;-56
2024/04/08 01:30:51;;;;;;;;;;;;;;;;;;5008003;28;4501;-56
2024/04/08 01:33:16;;;;;;;;;;;;;;;;;;5008325;28;1263;-54
2024/04/08 01:35:42;;;;;;;;;;;;;;;;;;5005850;28;5052;-56
2024/04/08 01:38:07;;;;;;;;;;;;;;;;;;5005677;28;4629;-56
2024/04/08 01:40:32;;;;;;;;;;;;;;;;;;5005317;28;5308;-56
2024/04/08 01:42:58;;;;;;;;;;;;;;;;;;5002912;28;5237;-55
2024/04/08 01:45:23;;;;;;;;;;;;;;;;;;5010804;28;3763;-55
2024/04/08 01:47:48;;;;;;;;;;;;;;;;;;5006175;28;5039;-56
2024/04/08 01:50:14;;;;;;;;;;;;;;;;;;5000959;28;5023;-56
2024/04/08 01:52:39;;;;;;;;;;;;;;;;;;5002589;28;5124;-56
2024/04/08 01:55:05;;;;;;;;;;;;;;;;;;5003666;28;4701;-56
2024/04/08 01:57:30;;;;;;;;;;;;;;;;;;5002949;28;3698;-55
2024/04/08 01:59:56;;;;;;;;;;;;;;;;;;5004780;28;4805;-56
2024/04/08 02:02:21;;;;;;;;;;;;;;;;;;5003031;28;4500;-56
2024/04/08 02:04:47;;;;;;;;;;;;;;;;;;5005424;28;4958;-55
2024/04/08 02:07:12;;;;;;;;;;;;;;;;;;4999269;28;5305;-56
2024/04/08 02:09:37;;;;;;;;;;;;;;;;;;4998593;28;3503;-56
2024/04/08 02:12:03;;;;;;;;;;;;;;;;;;5000529;28;4474;-56
2024/04/08 02:14:28;;;;;;;;;;;;;;;;;;4999327;28;4605;-56
2024/04/08 02:16:54;;;;;;;;;;;;;;;;;;5005703;28;5315;-56
2024/04/08 02:19:19;;;;;;;;;;;;;;;;;;5002715;28;4578;-55
2024/04/08 02:21:44;;;;;;;;;;;;;;;;;;5004833;28;3667;-56
2024/04/08 02:24:10;;;;;;;;;;;;;;;;;;5002568;28;4434;-56
2024/04/08 02:26:35;;;;;;;;;;;;;;;;;;5006097;28;5365;-55
2024/04/08 02:29:01;;;;;;;;;;;;;;;;;;5003964;28;4498;-56
2024/04/08 02:31:26;;;;;;;;;;;;;;;;;;5004287;28;5059;-55
2024/04/08 02:33:51;;;;;;;;;;;;;;;;;;5006873;28;4888;-55
2024/04/08 02:36:17;;;;;;;;;;;;;;;;;;5005156;28;3475;-56
2024/04/08 02:38:42;;;;;;;;;;;;;;;;;;5004670;28;5151;-54
2024/04/08 02:41:08;;;;;;;;;;;;;;;;;;5003142;28;4607;-55
2024/04/08 02:43:33;;;;;;;;;;;;;;;;;;5002819;28;5150;-56
2024/04/08 02:45:58;;;;;;;;;;;;;;;;;;5002126;28;4782;-56
2024/04/08 02:48:24;;;;;;;;;;;;;;;;;;5005354;28;3523;-56
2024/04/08 02:50:51;;;;;;;;;;;;;;;;;;5004118;28;4455;-56
2024/04/08 02:53:16;;;;;;;;;;;;;;;;;;5003030;28;5117;-56
2024/04/08 02:55:41;;;;;;;;;;;;;;;;;;5003388;28;4692;-55
2024/04/08 02:58:07;;;;;;;;;;;;;;;;;;5005675;28;5063;-54
2024/04/08 03:00:35;;;;;;;;;;;;;;;;;;5009953;28;3737;-56
2024/04/08 03:03:00;;;;;;;;;;;;;;;;;;5008409;28;5003;-55
2024/04/08 03:05:29;;;;;;;;;;;;;;;;;;5008628;28;4549;-54
2024/04/08 03:07:54;;;;;;;;;;;;;;;;;;5008758;28;5057;-55
2024/04/08 03:10:20;;;;;;;;;;;;;;;;;;5009961;28;5142;-55
2024/04/08 03:12:45;;;;;;;;;;;;;;;;;;5009502;28;3519;-54
2024/04/08 03:15:10;;;;;;;;;;;;;;;;;;5009340;28;4419;-55
2024/04/08 03:17:36;;;;;;;;;;;;;;;;;;5007355;28;4653;-55
2024/04/08 03:20:02;;;;;;;;;;;;;;;;;;5007182;28;5150;-56
2024/04/08 03:22:27;;;;;;;;;;;;;;;;;;5009984;28;5081;-56
2024/04/08 03:24:52;;;;;;;;;;;;;;;;;;5008217;28;4672;-56
2024/04/08 03:27:18;;;;;;;;;;;;;;;;;;5005986;28;3605;-55
2024/04/08 03:29:43;;;;;;;;;;;;;;;;;;5006800;28;5131;-54
2024/04/08 03:32:08;;;;;;;;;;;;;;;;;;5007021;28;5143;-56
2024/04/08 03:34:35;;;;;;;;;;;;;;;;;;5009796;28;5086;-55
2024/04/08 03:37:01;;;;;;;;;;;;;;;;;;5007133;28;4637;-55
2024/04/08 03:39:26;;;;;;;;;;;;;;;;;;5008966;28;3253;-57
2024/04/08 03:41:53;;;;;;;;;;;;;;;;;;5008460;28;4534;-56
2024/04/08 03:44:18;;;;;;;;;;;;;;;;;;5008850;28;4515;-55
2024/04/08 03:46:44;;;;;;;;;;;;;;;;;;5008578;28;5066;-56
2024/04/08 03:49:09;;;;;;;;;;;;;;;;;;4975728;28;5028;-56
2024/04/08 03:51:34;;;;;;;;;;;;;;;;;;5008482;28;1042;-55
2024/04/08 03:54:00;;;;;;;;;;;;;;;;;;5004134;28;4481;-55
2024/04/08 03:56:25;;;;;;;;;;;;;;;;;;5004484;28;5068;-54
2024/04/08 03:58:50;;;;;;;;;;;;;;;;;;5008085;28;4503;-57
2024/04/08 04:01:16;;;;;;;;;;;;;;;;;;5007194;28;5018;-56
2024/04/08 04:03:41;;;;;;;;;;;;;;;;;;5008629;28;3191;-56
2024/04/08 04:06:07;;;;;;;;;;;;;;;;;;5008855;28;4445;-56
2024/04/08 04:08:32;;;;;;;;;;;;;;;;;;5007101;28;5098;-56
2024/04/08 04:10:58;;;;;;;;;;;;;;;;;;5007791;28;4535;-56
2024/04/08 04:13:23;;;;;;;;;;;;;;;;;;5009340;28;5258;-55
2024/04/08 04:15:49;;;;;;;;;;;;;;;;;;5007966;28;3414;-55
2024/04/08 04:18:14;;;;;;;;;;;;;;;;;;5004882;28;4902;-56
2024/04/08 04:20:40;;;;;;;;;;;;;;;;;;5008489;28;4710;-56
2024/04/08 04:23:06;;;;;;;;;;;;;;;;;;5009306;28;5033;-56
2024/04/08 04:25:31;;;;;;;;;;;;;;;;;;5007040;28;5975;-56
2024/04/08 04:27:57;;;;;;;;;;;;;;;;;;5007695;28;4817;-56
2024/04/08 04:30:22;;;;;;;;;;;;;;;;;;5004807;28;3698;-56
2024/04/08 04:32:48;;;;;;;;;;;;;;;;;;5007450;28;5163;-56
2024/04/08 04:35:13;;;;;;;;;;;;;;;;;;5004654;28;5012;-55
2024/04/08 04:37:38;;;;;;;;;;;;;;;;;;5007152;28;4665;-56
2024/04/08 04:40:04;;;;;;;;;;;;;;;;;;5007918;28;5098;-56
2024/04/08 04:42:29;;;;;;;;;;;;;;;;;;4990319;28;3638;-55
2024/04/08 04:44:55;;;;;;;;;;;;;;;;;;5007312;28;4840;-55
2024/04/08 04:47:20;;;;;;;;;;;;;;;;;;5007511;28;4528;-55
2024/04/08 04:49:46;;;;;;;;;;;;;;;;;;5001569;28;4530;-55
2024/04/08 04:52:12;;;;;;;;;;;;;;;;;;5005237;28;5319;-57
2024/04/08 04:54:37;;;;;;;;;;;;;;;;;;5003166;28;3666;-61
2024/04/08 04:57:04;;;;;;;;;;;;;;;;;;5005844;28;5702;-61
2024/04/08 04:59:30;;;;;;;;;;;;;;;;;;5004546;28;4696;-61
2024/04/08 05:01:55;;;;;;;;;;;;;;;;;;5006335;28;4545;-61
2024/04/08 05:04:21;;;;;;;;;;;;;;;;;;5008313;28;5402;-62
2024/04/08 05:06:46;;;;;;;;;;;;;;;;;;5008009;28;1106;-62
2024/04/08 05:09:12;;;;;;;;;;;;;;;;;;5005851;28;5033;-62
2024/04/08 05:11:38;;;;;;;;;;;;;;;;;;5004195;28;4523;-62
2024/04/08 05:14:03;;;;;;;;;;;;;;;;;;5001353;28;4522;-63
2024/04/08 05:16:29;;;;;;;;;;;;;;;;;;5000153;28;5177;-61
2024/04/08 05:20:12;;;;;;;;;;;;;;;;;;5505246;25;4808;-62
2024/04/08 05:22:44;;;;;;;;;;;;;;;;;;5431939;26;5225;-62
2024/04/08 05:25:09;;;;;;;;;;;;;;;;;;5463028;26;4542;-62
2024/04/08 05:27:34;;;;;;;;;;;;;;;;;;5471440;26;3344;-56
2024/04/08 05:30:00;;;;;;;;;;;;;;;;;;5488939;25;5120;-57
2024/04/08 05:32:25;;;;;;;;;;;;;;;;;;5446691;26;5055;-56
2024/04/08 05:34:51;;;;;;;;;;;;;;;;;;5461690;25;5116;-56
2024/04/08 05:37:16;;;;;;;;;;;;;;;;;;5478337;25;5188;-56
2024/04/08 05:39:41;;;;;;;;;;;;;;;;;;5457004;26;3773;-56
2024/04/08 05:42:07;;;;;;;;;;;;;;;;;;5432361;25;5605;-56
2024/04/08 05:44:33;;;;;;;;;;;;;;;;;;5450645;26;5132;-56
2024/04/08 05:46:58;;;;;;;;;;;;;;;;;;5475250;25;4502;-57
2024/04/08 05:49:24;;;;;;;;;;;;;;;;;;5458093;26;5144;-56
2024/04/08 05:51:49;;;;;;;;;;;;;;;;;;5477028;26;1401;-56
2024/04/08 05:54:14;;;;;;;;;;;;;;;;;;5478600;25;5124;-57
2024/04/08 05:56:40;;;;;;;;;;;;;;;;;;5479780;25;4594;-56
2024/04/08 05:59:05;;;;;;;;;;;;;;;;;;5453730;26;5332;-57
2024/04/08 06:01:32;;;;;;;;;;;;;;;;;;5433410;26;5218;-57
2024/04/08 06:03:57;;;;;;;;;;;;;;;;;;5484379;25;5181;-56
2024/04/08 06:06:23;;;;;;;;;;;;;;;;;;5471407;25;3449;-57
2024/04/08 06:08:54;;;;;;;;;;;;;;;;;;5442546;26;4767;-57
2024/04/08 06:11:19;;;;;;;;;;;;;;;;;;5449430;26;4673;-57
2024/04/08 06:13:44;;;;;;;;;;;;;;;;;;5476766;25;5298;-57
2024/04/08 06:16:10;;;;;;;;;;;;;;;;;;5482441;25;4650;-57
2024/04/08 06:18:35;;;;;;;;;;;;;;;;;;5460594;26;3491;-56
2024/04/08 06:21:00;;;;;;;;;;;;;;;;;;5444377;26;4689;-57
2024/04/08 06:23:26;;;;;;;;;;;;;;;;;;5451802;26;4727;-56
2024/04/08 06:25:58;;;;;;;;;;;;;;;;;;5461543;25;5377;-56
2024/04/08 06:28:23;;;;;;;;;;;;;;;;;;5459775;25;4795;-57
2024/04/08 06:30:49;;;;;;;;;;;;;;;;;;5483253;25;1384;-56
2024/04/08 06:33:14;;;;;;;;;;;;;;;;;;5513572;25;5143;-57
2024/04/08 06:35:43;;;;;;;;;;;;;;;;;;5472305;26;4540;-57
2024/04/08 06:38:08;;;;;;;;;;;;;;;;;;5464912;26;4636;-57
2024/04/08 06:40:34;;;;;;;;;;;;;;;;;;5452434;26;5099;-57
2024/04/08 06:42:59;;;;;;;;;;;;;;;;;;5477879;26;4694;-57
2024/04/08 06:45:24;;;;;;;;;;;;;;;;;;5425049;26;1378;-57
2024/04/08 06:47:51;;;;;;;;;;;;;;;;;;5462688;26;5152;-57
2024/04/08 06:50:16;;;;;;;;;;;;;;;;;;5469701;26;5112;-57
2024/04/08 06:52:41;;;;;;;;;;;;;;;;;;5462133;26;5305;-56
2024/04/08 06:55:07;;;;;;;;;;;;;;;;;;5424319;26;5311;-57
2024/04/08 06:57:32;;;;;;;;;;;;;;;;;;5435667;26;1346;-55
2024/04/08 06:59:57;;;;;;;;;;;;;;;;;;5479012;26;5075;-56
2024/04/08 07:02:23;;;;;;;;;;;;;;;;;;5438740;26;4540;-56
2024/04/08 07:04:48;;;;;;;;;;;;;;;;;;5428535;26;4712;-57
2024/04/08 07:07:13;;;;;;;;;;;;;;;;;;5462572;26;4687;-56
2024/04/08 07:09:39;;;;;;;;;;;;;;;;;;5456603;26;2991;-57
2024/04/08 07:12:04;;;;;;;;;;;;;;;;;;5444368;26;4472;-56
2024/04/08 07:14:30;;;;;;;;;;;;;;;;;;5459058;26;4660;-57
2024/04/08 07:16:55;;;;;;;;;;;;;;;;;;5447450;26;5418;-56
2024/04/08 07:19:21;;;;;;;;;;;;;;;;;;5417060;26;4719;-56
2024/04/08 07:21:47;;;;;;;;;;;;;;;;;;5422749;26;1310;-57
2024/04/08 07:24:12;;;;;;;;;;;;;;;;;;5413597;26;4727;-56
2024/04/08 07:26:38;;;;;;;;;;;;;;;;;;5435865;26;4557;-55
2024/04/08 07:29:03;;;;;;;;;;;;;;;;;;5446322;26;5293;-57
2024/04/08 07:31:29;;;;;;;;;;;;;;;;;;5434960;26;5248;-57
2024/04/08 07:33:54;;;;;;;;;;;;;;;;;;5447054;26;5281;-56
2024/04/08 07:36:19;;;;;;;;;;;;;;;;;;5474498;26;1409;-57
2024/04/08 07:38:45;;;;;;;;;;;;;;;;;;5435348;26;5042;-57
2024/04/08 07:41:11;;;;;;;;;;;;;;;;;;5448185;26;5149;-57
2024/04/08 07:43:37;;;;;;;;;;;;;;;;;;5440365;26;4700;-56
2024/04/08 07:46:03;;;;;;;;;;;;;;;;;;5426691;26;5228;-57
2024/04/08 07:48:28;;;;;;;;;;;;;;;;;;5462807;26;3941;-57
2024/04/08 07:50:56;;;;;;;;;;;;;;;;;;5445803;26;5093;-56
2024/04/08 07:53:21;;;;;;;;;;;;;;;;;;5448617;26;4988;-56
2024/04/08 07:55:47;;;;;;;;;;;;;;;;;;5440773;26;5158;-57
2024/04/08 07:58:12;;;;;;;;;;;;;;;;;;5429443;26;5180;-57
2024/04/08 08:00:37;;;;;;;;;;;;;;;;;;5454932;26;1349;-55
2024/04/08 08:03:03;;;;;;;;;;;;;;;;;;5409915;26;4665;-57
2024/04/08 08:05:28;;;;;;;;;;;;;;;;;;5424573;26;5054;-56
2024/04/08 08:07:54;;;;;;;;;;;;;;;;;;5415365;26;4743;-57
2024/04/08 08:10:19;;;;;;;;;;;;;;;;;;5421755;26;5161;-56
2024/04/08 08:12:44;;;;;;;;;;;;;;;;;;5416967;26;1332;-56
2024/04/08 08:15:10;;;;;;;;;;;;;;;;;;5464814;26;5057;-56
2024/04/08 08:17:36;;;;;;;;;;;;;;;;;;5439414;26;4699;-56
2024/04/08 08:20:04;;;;;;;;;;;;;;;;;;5423194;26;5460;-56
2024/04/08 08:22:30;;;;;;;;;;;;;;;;;;5433782;26;5120;-56
2024/04/08 08:24:55;;;;;;;;;;;;;;;;;;5481687;26;4544;-57
2024/04/08 08:27:20;;;;;;;;;;;;;;;;;;5480740;26;1421;-56
2024/04/08 08:29:50;;;;;;;;;;;;;;;;;;5429091;26;4703;-56
2024/04/08 08:32:15;;;;;;;;;;;;;;;;;;5409641;26;4584;-57
2024/04/08 08:34:40;;;;;;;;;;;;;;;;;;5417030;26;4987;-57
2024/04/08 08:37:06;;;;;;;;;;;;;;;;;;5409991;26;4593;-56
2024/04/08 08:39:37;;;;;;;;;;;;;;;;;;5426677;26;1961;-57
2024/04/08 08:42:02;;;;;;;;;;;;;;;;;;5424413;26;4637;-56
2024/04/08 08:44:27;;;;;;;;;;;;;;;;;;5517950;25;5861;-56
2024/04/08 08:46:53;;;;;;;;;;;;;;;;;;5436695;26;5340;-56
2024/04/08 08:49:18;;;;;;;;;;;;;;;;;;5416777;26;5314;-57
2024/04/08 08:51:44;;;;;;;;;;;;;;;;;;5449088;26;1267;-57
2024/04/08 08:54:09;;;;;;;;;;;;;;;;;;5456822;26;5305;-57
2024/04/08 08:56:35;;;;;;;;;;;;;;;;;;5455259;26;5076;-57
2024/04/08 08:59:02;;;;;;;;;;;;;;;;;;5414415;26;4628;-57
2024/04/08 09:01:30;;;;;;;;;;;;;;;;;;5419585;26;5155;-57
2024/04/08 09:03:55;;;;;;;;;;;;;;;;;;5425833;26;5274;-57
2024/04/08 09:06:20;;;;;;;;;;;;;;;;;;5418501;26;3480;-57
2024/04/08 09:08:46;;;;;;;;;;;;;;;;;;5467968;25;5195;-56
2024/04/08 09:11:11;;;;;;;;;;;;;;;;;;5466701;25;5067;-57
2024/04/08 09:13:37;;;;;;;;;;;;;;;;;;5453995;25;5251;-57
2024/04/08 09:16:03;;;;;;;;;;;;;;;;;;5422128;26;5122;-57
2024/04/08 09:18:28;;;;;;;;;;;;;;;;;;5464897;26;3763;-56
2024/04/08 09:20:54;;;;;;;;;;;;;;;;;;5457821;26;5181;-56
2024/04/08 09:23:19;;;;;;;;;;;;;;;;;;5461634;26;5033;-56
2024/04/08 09:25:44;;;;;;;;;;;;;;;;;;5453059;26;6140;-57
2024/04/08 09:28:11;;;;;;;;;;;;;;;;;;5431279;26;5199;-57
2024/04/08 09:30:36;;;;;;;;;;;;;;;;;;5439776;26;1313;-57
2024/04/08 09:33:02;;;;;;;;;;;;;;;;;;5421767;26;4666;-57
2024/04/08 09:35:28;;;;;;;;;;;;;;;;;;5408474;26;5146;-57
2024/04/08 09:37:53;;;;;;;;;;;;;;;;;;5433354;26;4708;-57
2024/04/08 09:40:19;;;;;;;;;;;;;;;;;;5468341;25;4684;-56
2024/04/08 09:42:44;;;;;;;;;;;;;;;;;;5458714;26;1501;-57
2024/04/08 09:45:10;;;;;;;;;;;;;;;;;;5451107;26;5096;-56
2024/04/08 09:47:36;;;;;;;;;;;;;;;;;;5439627;26;5256;-57
2024/04/08 09:50:01;;;;;;;;;;;;;;;;;;5442641;26;5192;-57
2024/04/08 09:52:27;;;;;;;;;;;;;;;;;;5450834;26;5167;-57
2024/04/08 09:54:54;;;;;;;;;;;;;;;;;;5422348;26;4593;-56
2024/04/08 09:57:22;;;;;;;;;;;;;;;;;;5409963;26;3539;-57
2024/04/08 09:59:47;;;;;;;;;;;;;;;;;;5488094;26;5259;-56
2024/04/08 10:02:16;;;;;;;;;;;;;;;;;;5440583;26;5157;-56
2024/04/08 10:04:41;;;;;;;;;;;;;;;;;;5442957;26;5120;-57
2024/04/08 10:07:07;;;;;;;;;;;;;;;;;;5476678;26;5113;-57
2024/04/08 10:09:32;;;;;;;;;;;;;;;;;;5476479;26;3452;-57
2024/04/08 10:11:58;;;;;;;;;;;;;;;;;;5416075;26;5115;-57
2024/04/08 10:14:23;;;;;;;;;;;;;;;;;;5480765;26;5239;-56
2024/04/08 10:16:49;;;;;;;;;;;;;;;;;;5449740;26;4658;-56
2024/04/08 10:19:15;;;;;;;;;;;;;;;;;;5462765;26;4613;-56
2024/04/08 10:21:40;;;;;;;;;;;;;;;;;;5429260;26;1229;-57
2024/04/08 10:24:06;;;;;;;;;;;;;;;;;;5427308;26;4637;-57
2024/04/08 10:26:34;;;;;;;;;;;;;;;;;;5437411;26;5018;-57
2024/04/08 10:28:59;;;;;;;;;;;;;;;;;;5434191;26;5105;-56
2024/04/08 10:31:28;;;;;;;;;;;;;;;;;;5429869;26;5692;-57
2024/04/08 10:33:53;;;;;;;;;;;;;;;;;;5437691;26;5377;-56
2024/04/08 10:36:19;;;;;;;;;;;;;;;;;;5447519;26;1416;-56
2024/04/08 10:38:44;;;;;;;;;;;;;;;;;;5467431;26;4500;-57
2024/04/08 10:41:10;;;;;;;;;;;;;;;;;;5454176;26;5161;-57
2024/04/08 10:43:35;;;;;;;;;;;;;;;;;;5425383;26;4678;-57
2024/04/08 10:46:04;;;;;;;;;;;;;;;;;;5458742;26;4574;-57
2024/04/08 10:48:29;;;;;;;;;;;;;;;;;;5415065;26;3188;-57
2024/04/08 10:50:55;;;;;;;;;;;;;;;;;;5449758;26;4656;-56
2024/04/08 10:53:20;;;;;;;;;;;;;;;;;;5444886;26;5241;-56
2024/04/08 10:55:46;;;;;;;;;;;;;;;;;;5444233;26;4608;-56
2024/04/08 10:58:11;;;;;;;;;;;;;;;;;;5459843;26;5237;-56
2024/04/08 11:00:36;;;;;;;;;;;;;;;;;;5436788;26;1404;-56
2024/04/08 11:03:02;;;;;;;;;;;;;;;;;;5475134;26;5015;-56
2024/04/08 11:05:28;;;;;;;;;;;;;;;;;;5445935;26;4806;-57
2024/04/08 11:07:54;;;;;;;;;;;;;;;;;;5470176;26;4730;-57
2024/04/08 11:10:19;;;;;;;;;;;;;;;;;;5486333;26;4673;-57
2024/04/08 11:12:44;;;;;;;;;;;;;;;;;;5479739;26;1451;-57
2024/04/08 11:15:10;;;;;;;;;;;;;;;;;;5416333;25;5211;-56
2024/04/08 11:17:36;;;;;;;;;;;;;;;;;;5409215;26;5230;-57
2024/04/08 11:20:03;;;;;;;;;;;;;;;;;;5434274;26;4647;-57
2024/04/08 11:22:28;;;;;;;;;;;;;;;;;;5458769;26;4658;-57
2024/04/08 11:25:00;;;;;;;;;;;;;;;;;;5421561;26;5251;-55
2024/04/08 11:27:25;;;;;;;;;;;;;;;;;;5473720;26;1343;-56
2024/04/08 11:29:51;;;;;;;;;;;;;;;;;;5475503;26;5180;-56
2024/04/08 11:32:16;;;;;;;;;;;;;;;;;;5461677;26;5093;-56
2024/04/08 11:34:42;;;;;;;;;;;;;;;;;;5457776;26;5222;-56
2024/04/08 11:37:11;;;;;;;;;;;;;;;;;;5478521;26;5308;-56
2024/04/08 11:39:43;;;;;;;;;;;;;;;;;;5437844;26;1863;-56
2024/04/08 11:42:09;;;;;;;;;;;;;;;;;;5421653;26;4546;-56
2024/04/08 11:44:34;;;;;;;;;;;;;;;;;;5437111;26;5113;-56
2024/04/08 11:47:00;;;;;;;;;;;;;;;;;;5435702;26;4681;-56
2024/04/08 11:49:25;;;;;;;;;;;;;;;;;;5521084;25;5141;-56
2024/04/08 11:51:51;;;;;;;;;;;;;;;;;;5446861;26;4692;-53
2024/04/08 11:54:17;;;;;;;;;;;;;;;;;;5450501;26;1364;-56
2024/04/08 11:56:43;;;;;;;;;;;;;;;;;;5440187;26;5039;-56
2024/04/08 11:59:08;;;;;;;;;;;;;;;;;;5427952;26;5134;-55
2024/04/08 12:01:33;;;;;;;;;;;;;;;;;;5428008;26;5169;-57
2024/04/08 12:03:59;;;;;;;;;;;;;;;;;;5419266;26;5251;-56
2024/04/08 12:06:24;;;;;;;;;;;;;;;;;;5434720;26;1384;-57
2024/04/08 12:08:49;;;;;;;;;;;;;;;;;;5432166;26;5108;-55
2024/04/08 12:11:15;;;;;;;;;;;;;;;;;;5433403;26;4614;-55
2024/04/08 12:13:40;;;;;;;;;;;;;;;;;;5428185;26;5683;-56
2024/04/08 12:16:06;;;;;;;;;;;;;;;;;;5439994;26;5107;-56
2024/04/08 12:18:31;;;;;;;;;;;;;;;;;;5462363;26;3585;-56
2024/04/08 12:20:56;;;;;;;;;;;;;;;;;;5411413;26;5107;-56
2024/04/08 12:23:22;;;;;;;;;;;;;;;;;;5446212;26;4703;-56
2024/04/08 12:25:47;;;;;;;;;;;;;;;;;;5460729;26;5572;-56
2024/04/08 12:28:13;;;;;;;;;;;;;;;;;;5447731;26;5208;-56
2024/04/08 12:30:41;;;;;;;;;;;;;;;;;;5482526;26;1357;-56
2024/04/08 12:33:07;;;;;;;;;;;;;;;;;;5409691;26;4513;-56
2024/04/08 12:35:32;;;;;;;;;;;;;;;;;;5456012;26;5081;-56
2024/04/08 12:37:57;;;;;;;;;;;;;;;;;;5437492;26;4714;-56
2024/04/08 12:40:23;;;;;;;;;;;;;;;;;;5427473;26;4600;-56
2024/04/08 12:42:48;;;;;;;;;;;;;;;;;;5472593;26;3319;-57
2024/04/08 12:45:13;;;;;;;;;;;;;;;;;;5414981;26;4471;-57
2024/04/08 12:47:39;;;;;;;;;;;;;;;;;;5454827;26;5021;-56
2024/04/08 12:50:06;;;;;;;;;;;;;;;;;;5435576;26;5183;-57
2024/04/08 12:52:33;;;;;;;;;;;;;;;;;;5437344;26;5194;-56
2024/04/08 12:54:58;;;;;;;;;;;;;;;;;;5447159;26;5076;-56
2024/04/08 12:57:24;;;;;;;;;;;;;;;;;;5412127;26;3566;-57
2024/04/08 12:59:49;;;;;;;;;;;;;;;;;;5443776;26;4810;-56
2024/04/08 13:02:15;;;;;;;;;;;;;;;;;;5442249;26;4608;-57
2024/04/08 13:04:40;;;;;;;;;;;;;;;;;;5433195;26;4675;-56
2024/04/08 13:07:05;;;;;;;;;;;;;;;;;;5476578;26;4614;-56
2024/04/08 13:09:31;;;;;;;;;;;;;;;;;;5454457;26;1529;-56
2024/04/08 13:11:56;;;;;;;;;;;;;;;;;;5420292;26;4626;-56
2024/04/08 13:14:22;;;;;;;;;;;;;;;;;;5449071;26;4653;-57
2024/04/08 13:16:47;;;;;;;;;;;;;;;;;;5449326;26;5091;-56
2024/04/08 13:19:12;;;;;;;;;;;;;;;;;;5431995;26;4648;-56
2024/04/08 13:21:38;;;;;;;;;;;;;;;;;;5451202;26;1228;-56
2024/04/08 13:24:03;;;;;;;;;;;;;;;;;;5419014;26;4764;-56
2024/04/08 13:26:31;;;;;;;;;;;;;;;;;;5430147;26;4553;-58
2024/04/08 13:28:57;;;;;;;;;;;;;;;;;;5414770;26;4578;-56
2024/04/08 13:31:23;;;;;;;;;;;;;;;;;;5426190;26;4485;-56
2024/04/08 13:33:48;;;;;;;;;;;;;;;;;;5460632;26;2563;-56
2024/04/08 13:36:14;;;;;;;;;;;;;;;;;;5427716;26;5084;-56
2024/04/08 13:38:39;;;;;;;;;;;;;;;;;;5443816;26;5453;-56
2024/04/08 13:41:05;;;;;;;;;;;;;;;;;;5422674;26;4627;-57
2024/04/08 13:43:30;;;;;;;;;;;;;;;;;;5420229;26;5184;-59
2024/04/08 13:45:56;;;;;;;;;;;;;;;;;;5443118;26;5223;-60
2024/04/08 13:48:21;;;;;;;;;;;;;;;;;;5416241;26;3570;-59
2024/04/08 13:50:47;;;;;;;;;;;;;;;;;;5444423;26;4516;-61
2024/04/08 13:53:12;;;;;;;;;;;;;;;;;;5457325;26;5189;-61
2024/04/08 13:55:37;;;;;;;;;;;;;;;;;;5458228;26;4717;-60
2024/04/08 13:58:03;;;;;;;;;;;;;;;;;;5465031;26;5157;-60
2024/04/08 14:00:28;;;;;;;;;;;;;;;;;;5449663;26;3193;-59
2024/04/08 14:02:54;;;;;;;;;;;;;;;;;;5444279;26;5138;-61
2024/04/08 14:05:19;;;;;;;;;;;;;;;;;;5440325;26;4570;-59
2024/04/08 14:07:45;;;;;;;;;;;;;;;;;;5431063;26;4570;-60
2024/04/08 14:10:10;;;;;;;;;;;;;;;;;;5410027;26;5129;-57
2024/04/08 14:12:36;;;;;;;;;;;;;;;;;;5450853;26;3884;-58
2024/04/08 14:15:02;;;;;;;;;;;;;;;;;;5435440;26;5059;-57
2024/04/08 14:17:27;;;;;;;;;;;;;;;;;;5419495;26;5094;-57
2024/04/08 14:19:52;;;;;;;;;;;;;;;;;;5428509;26;5174;-57
2024/04/08 14:22:20;;;;;;;;;;;;;;;;;;5457704;26;5105;-58
2024/04/08 14:24:45;;;;;;;;;;;;;;;;;;5444480;26;3504;-57
2024/04/08 14:27:11;;;;;;;;;;;;;;;;;;5442212;26;5296;-58
2024/04/08 14:29:37;;;;;;;;;;;;;;;;;;5440979;26;5302;-57
2024/04/08 14:32:02;;;;;;;;;;;;;;;;;;5437310;26;5262;-58
2024/04/08 14:34:28;;;;;;;;;;;;;;;;;;5442379;26;5157;-59
2024/04/08 14:36:53;;;;;;;;;;;;;;;;;;5423139;26;5127;-58
2024/04/08 14:39:18;;;;;;;;;;;;;;;;;;5459183;26;3365;-59
2024/04/08 14:41:44;;;;;;;;;;;;;;;;;;5433350;26;5108;-53
2024/04/08 14:44:09;;;;;;;;;;;;;;;;;;5426385;26;4534;-54
2024/04/08 14:46:35;;;;;;;;;;;;;;;;;;5425767;26;5093;-67
2024/04/08 14:49:00;;;;;;;;;;;;;;;;;;5439420;26;4647;-69
2024/04/08 14:51:25;;;;;;;;;;;;;;;;;;5449568;26;1341;-65
2024/04/08 14:53:51;;;;;;;;;;;;;;;;;;5450229;26;5026;-65
2024/04/08 14:56:17;;;;;;;;;;;;;;;;;;5440649;26;5212;-67
2024/04/08 14:58:42;;;;;;;;;;;;;;;;;;5419504;26;5148;-67
2024/04/08 15:01:11;;;;;;;;;;;;;;;;;;5444550;26;5308;-65
2024/04/08 15:03:36;;;;;;;;;;;;;;;;;;5449651;26;3714;-69
2024/04/08 15:06:01;;;;;;;;;;;;;;;;;;5451319;26;5177;-66
2024/04/08 15:08:27;;;;;;;;;;;;;;;;;;5430376;26;5169;-68
2024/04/08 15:11:01;;;;;;;;;;;;;;;;;;5432370;26;5143;-66
2024/04/08 15:13:27;;;;;;;;;;;;;;;;;;5433390;26;5162;-67
2024/04/08 15:15:53;;;;;;;;;;;;;;;;;;5415802;26;4596;-72
2024/04/08 15:18:18;;;;;;;;;;;;;;;;;;5409889;26;3546;-69
2024/04/08 15:20:44;;;;;;;;;;;;;;;;;;5411187;26;5109;-68
2024/04/08 15:23:09;;;;;;;;;;;;;;;;;;5414122;26;5099;-70
2024/04/08 15:25:35;;;;;;;;;;;;;;;;;;5427940;26;5143;-69
2024/04/08 15:28:00;;;;;;;;;;;;;;;;;;5437960;26;5189;-69
2024/04/08 15:30:26;;;;;;;;;;;;;;;;;;5400705;26;3653;-70
2024/04/08 15:32:51;;;;;;;;;;;;;;;;;;5435689;26;5160;-70
2024/04/08 15:35:16;;;;;;;;;;;;;;;;;;5432704;26;5301;-70
2024/04/08 15:37:42;;;;;;;;;;;;;;;;;;5433303;26;4620;-70
2024/04/08 15:40:07;;;;;;;;;;;;;;;;;;5454092;26;5176;-70
2024/04/08 15:42:32;;;;;;;;;;;;;;;;;;5428250;26;3508;-70
2024/04/08 15:45:03;;;;;;;;;;;;;;;;;;5431809;26;5019;-70
2024/04/08 15:47:28;;;;;;;;;;;;;;;;;;5437174;26;5115;-71
2024/04/08 15:49:54;;;;;;;;;;;;;;;;;;5464870;26;4554;-70
2024/04/08 15:52:19;;;;;;;;;;;;;;;;;;5451585;26;4551;-70
2024/04/08 15:54:45;;;;;;;;;;;;;;;;;;5433414;26;2240;-70
2024/04/08 15:57:10;;;;;;;;;;;;;;;;;;5419538;26;4985;-70
2024/04/08 15:59:36;;;;;;;;;;;;;;;;;;5420491;26;5251;-71
2024/04/08 16:02:02;;;;;;;;;;;;;;;;;;5428051;26;5122;-71
2024/04/08 16:04:27;;;;;;;;;;;;;;;;;;5454271;26;5279;-68
2024/04/08 16:06:52;;;;;;;;;;;;;;;;;;5406723;26;5276;-67
2024/04/08 16:09:18;;;;;;;;;;;;;;;;;;5452154;26;3623;-69
2024/04/08 16:11:45;;;;;;;;;;;;;;;;;;5454978;26;4654;-71
2024/04/08 16:14:11;;;;;;;;;;;;;;;;;;5433473;26;4575;-69
2024/04/08 16:16:36;;;;;;;;;;;;;;;;;;5433949;26;5193;-70
2024/04/08 16:19:02;;;;;;;;;;;;;;;;;;5413314;26;5144;-74
2024/04/08 16:21:28;;;;;;;;;;;;;;;;;;5405721;26;3487;-72
2024/04/08 16:23:53;;;;;;;;;;;;;;;;;;5403220;26;5059;-68
2024/04/08 16:26:19;;;;;;;;;;;;;;;;;;5408336;26;5172;-71
2024/04/08 16:28:44;;;;;;;;;;;;;;;;;;5421473;26;4573;-77
2024/04/08 16:31:10;;;;;;;;;;;;;;;;;;5409895;26;5147;-70
2024/04/08 16:33:36;;;;;;;;;;;;;;;;;;5405693;26;4037;-70
2024/04/08 16:36:01;;;;;;;;;;;;;;;;;;5421800;26;5052;-66
2024/04/08 16:38:27;;;;;;;;;;;;;;;;;;5416694;26;4547;-68
2024/04/08 16:40:52;;;;;;;;;;;;;;;;;;5405860;26;5172;-65
2024/04/08 16:43:18;;;;;;;;;;;;;;;;;;5430771;26;4711;-67
2024/04/08 16:45:53;;;;;;;;;;;;;;;;;;5406908;26;1264;-70
2024/04/08 16:48:18;;;;;;;;;;;;;;;;;;5441760;26;5152;-66
2024/04/08 16:50:44;;;;;;;;;;;;;;;;;;5451836;26;4995;-68
2024/04/08 16:53:10;;;;;;;;;;;;;;;;;;5428964;26;5402;-68